TOM744 LEPA-LEMD
Flight info
| Callsign | TOM744 |
|---|---|
| Flight time | 1h 3m |
| Altitude | 31000 |
| Route | EPAMA N733 PRADO |
| Aircraft | B738/M-SDE2E3FGHIRWXY/LB1 |
Departure
| Time | 2026-05-07 16:55 |
|---|---|
| Airport | Palma de Mallorca Airport (LEPA) |
Arrival
| Time | 2026-05-07 17:59 |
|---|---|
| Airport | Adolfo Suárez Madrid–Barajas Airport (LEMD) |
| Time | Latitude | Longitude | Altitude | Speed | Heading |
|---|---|---|---|---|---|
| 2026-05-07 16:18 | 39.54897 | 2.73811 | 28 ft | 0 kts | 239° |
| 2026-05-07 16:47 | 39.54904 | 2.73830 | 28 ft | 2 kts | 256° |
| 2026-05-07 16:47 | 39.54906 | 2.73851 | 28 ft | 2 kts | 259° |
| 2026-05-07 16:47 | 39.54911 | 2.73871 | 28 ft | 2 kts | 243° |
| 2026-05-07 16:47 | 39.54919 | 2.73890 | 27 ft | 2 kts | 238° |
| 2026-05-07 16:48 | 39.54929 | 2.73907 | 27 ft | 2 kts | 228° |
| 2026-05-07 16:48 | 39.54941 | 2.73921 | 27 ft | 2 kts | 189° |
| 2026-05-07 16:48 | 39.54945 | 2.73922 | 27 ft | 0 kts | 162° |
| 2026-05-07 16:50 | 39.54941 | 2.73927 | 27 ft | 4 kts | 142° |
| 2026-05-07 16:50 | 39.54946 | 2.74012 | 27 ft | 6 kts | 79° |
| 2026-05-07 16:51 | 39.54933 | 2.74044 | 27 ft | 7 kts | 140° |
| 2026-05-07 16:51 | 39.54844 | 2.74112 | 28 ft | 23 kts | 149° |
| 2026-05-07 16:51 | 39.54786 | 2.74123 | 28 ft | 3 kts | 221° |
| 2026-05-07 16:51 | 39.54758 | 2.74060 | 29 ft | 16 kts | 239° |
| 2026-05-07 16:52 | 39.54673 | 2.73883 | 30 ft | 29 kts | 238° |
| 2026-05-07 16:52 | 39.54569 | 2.73662 | 30 ft | 28 kts | 238° |
| 2026-05-07 16:52 | 39.54472 | 2.73456 | 32 ft | 26 kts | 238° |
| 2026-05-07 16:52 | 39.54381 | 2.73265 | 32 ft | 22 kts | 238° |
| 2026-05-07 16:53 | 39.54319 | 2.73182 | 34 ft | 8 kts | 166° |
| 2026-05-07 16:53 | 39.54298 | 2.73201 | 33 ft | 0 kts | 135° |
| 2026-05-07 16:53 | 39.54292 | 2.73209 | 34 ft | 3 kts | 133° |
| 2026-05-07 16:53 | 39.54281 | 2.73253 | 34 ft | 6 kts | 100° |
| 2026-05-07 16:54 | 39.54274 | 2.73337 | 34 ft | 13 kts | 95° |
| 2026-05-07 16:54 | 39.54274 | 2.73488 | 32 ft | 21 kts | 71° |
| 2026-05-07 16:54 | 39.54285 | 2.73516 | 31 ft | 1 kts | 59° |
| 2026-05-07 16:54 | 39.54369 | 2.73692 | 30 ft | 58 kts | 58° |
| 2026-05-07 16:55 | 39.54709 | 2.74407 | 29 ft | 125 kts | 58° |
| 2026-05-07 16:55 | 39.55257 | 2.75570 | 98 ft | 174 kts | 57° |
| 2026-05-07 16:55 | 39.55935 | 2.77002 | 636 ft | 195 kts | 59° |
| 2026-05-07 16:55 | 39.56656 | 2.78540 | 1296 ft | 203 kts | 59° |
| 2026-05-07 16:56 | 39.57388 | 2.80101 | 1930 ft | 206 kts | 60° |
| 2026-05-07 16:56 | 39.58136 | 2.81694 | 2585 ft | 208 kts | 60° |
| 2026-05-07 16:56 | 39.59662 | 2.84945 | 3772 ft | 218 kts | 60° |
| 2026-05-07 16:57 | 39.60459 | 2.86644 | 4397 ft | 221 kts | 59° |
| 2026-05-07 16:57 | 39.61267 | 2.88367 | 5024 ft | 226 kts | 59° |
| 2026-05-07 16:57 | 39.62087 | 2.90118 | 5656 ft | 229 kts | 59° |
| 2026-05-07 16:57 | 39.63214 | 2.91571 | 6240 ft | 234 kts | 23° |
| 2026-05-07 16:58 | 39.64826 | 2.91756 | 6859 ft | 235 kts | 341° |
| 2026-05-07 16:58 | 39.66099 | 2.90585 | 7601 ft | 229 kts | 303° |
| 2026-05-07 16:58 | 39.66871 | 2.88782 | 8358 ft | 230 kts | 289° |
| 2026-05-07 16:58 | 39.67292 | 2.86775 | 9100 ft | 231 kts | 281° |
| 2026-05-07 16:59 | 39.67610 | 2.84727 | 9889 ft | 232 kts | 281° |
| 2026-05-07 16:59 | 39.67944 | 2.82667 | 10588 ft | 234 kts | 280° |
| 2026-05-07 16:59 | 39.68180 | 2.80562 | 11203 ft | 241 kts | 270° |
| 2026-05-07 16:59 | 39.68136 | 2.78289 | 11462 ft | 266 kts | 265° |
| 2026-05-07 17:00 | 39.67990 | 2.75781 | 11699 ft | 293 kts | 264° |
| 2026-05-07 17:00 | 39.67816 | 2.73022 | 11893 ft | 319 kts | 265° |
| 2026-05-07 17:00 | 39.67633 | 2.70045 | 12187 ft | 340 kts | 265° |
| 2026-05-07 17:00 | 39.67452 | 2.66939 | 12820 ft | 348 kts | 265° |
| 2026-05-07 17:01 | 39.67278 | 2.63788 | 13537 ft | 349 kts | 265° |
| 2026-05-07 17:01 | 39.67110 | 2.60648 | 13889 ft | 349 kts | 265° |
| 2026-05-07 17:01 | 39.66948 | 2.57517 | 13929 ft | 350 kts | 265° |
| 2026-05-07 17:01 | 39.66783 | 2.54327 | 14428 ft | 356 kts | 265° |
| 2026-05-07 17:02 | 39.66673 | 2.52196 | 14934 ft | 357 kts | 265° |
| 2026-05-07 17:02 | 39.66509 | 2.48989 | 15880 ft | 355 kts | 265° |
| 2026-05-07 17:02 | 39.66344 | 2.45787 | 16711 ft | 357 kts | 265° |
| 2026-05-07 17:02 | 39.66176 | 2.42545 | 17441 ft | 361 kts | 265° |
| 2026-05-07 17:03 | 39.66007 | 2.39285 | 18170 ft | 364 kts | 265° |
| 2026-05-07 17:03 | 39.65836 | 2.35998 | 18838 ft | 366 kts | 265° |
| 2026-05-07 17:03 | 39.65663 | 2.32695 | 19511 ft | 368 kts | 265° |
| 2026-05-07 17:03 | 39.65487 | 2.29371 | 20164 ft | 370 kts | 265° |
| 2026-05-07 17:04 | 39.65310 | 2.26031 | 20775 ft | 373 kts | 264° |
| 2026-05-07 17:04 | 39.65132 | 2.22669 | 21600 ft | 368 kts | 264° |
| 2026-05-07 17:04 | 39.64956 | 2.19384 | 22177 ft | 374 kts | 264° |
| 2026-05-07 17:04 | 39.64769 | 2.15931 | 22564 ft | 382 kts | 264° |
| 2026-05-07 17:05 | 39.64583 | 2.12515 | 23094 ft | 385 kts | 264° |
| 2026-05-07 17:05 | 39.64394 | 2.09040 | 23659 ft | 387 kts | 264° |
| 2026-05-07 17:05 | 39.64203 | 2.05552 | 24159 ft | 389 kts | 264° |
| 2026-05-07 17:05 | 39.64011 | 2.02043 | 24672 ft | 390 kts | 264° |
| 2026-05-07 17:06 | 39.63816 | 1.98526 | 25162 ft | 391 kts | 264° |
| 2026-05-07 17:06 | 39.63620 | 1.94999 | 25616 ft | 393 kts | 264° |
| 2026-05-07 17:06 | 39.63421 | 1.91451 | 26073 ft | 395 kts | 264° |
| 2026-05-07 17:06 | 39.63220 | 1.87875 | 26523 ft | 397 kts | 264° |
| 2026-05-07 17:07 | 39.63017 | 1.84293 | 26973 ft | 398 kts | 264° |
| 2026-05-07 17:07 | 39.62813 | 1.80699 | 27419 ft | 400 kts | 264° |
| 2026-05-07 17:07 | 39.62608 | 1.77109 | 27978 ft | 398 kts | 263° |
| 2026-05-07 17:07 | 39.62403 | 1.73541 | 28686 ft | 393 kts | 263° |
| 2026-05-07 17:08 | 39.62201 | 1.70028 | 29400 ft | 388 kts | 263° |
| 2026-05-07 17:08 | 39.62002 | 1.66590 | 29992 ft | 386 kts | 263° |
| 2026-05-07 17:08 | 39.61799 | 1.63126 | 30466 ft | 385 kts | 263° |
| 2026-05-07 17:08 | 39.61595 | 1.59663 | 30852 ft | 385 kts | 263° |
| 2026-05-07 17:09 | 39.61183 | 1.52711 | 30902 ft | 387 kts | 263° |
| 2026-05-07 17:09 | 39.60769 | 1.45763 | 30914 ft | 386 kts | 263° |
| 2026-05-07 17:10 | 39.60353 | 1.38867 | 30911 ft | 386 kts | 263° |
| 2026-05-07 17:10 | 39.59955 | 1.31936 | 30916 ft | 386 kts | 263° |
| 2026-05-07 17:11 | 39.59574 | 1.24996 | 30905 ft | 386 kts | 263° |
| 2026-05-07 17:11 | 39.59188 | 1.18044 | 30910 ft | 386 kts | 263° |
| 2026-05-07 17:12 | 39.58795 | 1.11094 | 30916 ft | 387 kts | 263° |
| 2026-05-07 17:12 | 39.58396 | 1.04133 | 30922 ft | 387 kts | 263° |
| 2026-05-07 17:13 | 39.57992 | 0.97160 | 30931 ft | 388 kts | 263° |
| 2026-05-07 17:13 | 39.57587 | 0.90228 | 30926 ft | 388 kts | 263° |
| 2026-05-07 17:14 | 39.57173 | 0.83230 | 30932 ft | 389 kts | 263° |
| 2026-05-07 17:14 | 39.56756 | 0.76237 | 30937 ft | 389 kts | 263° |
| 2026-05-07 17:15 | 39.56335 | 0.69238 | 30931 ft | 389 kts | 263° |
| 2026-05-07 17:15 | 39.55908 | 0.62232 | 30940 ft | 390 kts | 263° |
| 2026-05-07 17:16 | 39.55481 | 0.55267 | 30940 ft | 390 kts | 263° |
| 2026-05-07 17:16 | 39.55050 | 0.48264 | 30937 ft | 390 kts | 263° |
| 2026-05-07 17:17 | 39.54613 | 0.41238 | 30938 ft | 391 kts | 263° |
| 2026-05-07 17:17 | 39.54173 | 0.34214 | 30940 ft | 391 kts | 263° |
| 2026-05-07 17:18 | 39.53727 | 0.27194 | 30938 ft | 391 kts | 263° |
| 2026-05-07 17:18 | 39.53270 | 0.20178 | 30937 ft | 391 kts | 263° |
| 2026-05-07 17:19 | 39.52809 | 0.13169 | 30933 ft | 391 kts | 262° |
| 2026-05-07 17:19 | 39.52345 | 0.06155 | 30934 ft | 391 kts | 262° |
| 2026-05-07 17:20 | 39.51877 | -0.00856 | 30938 ft | 391 kts | 262° |
| 2026-05-07 17:20 | 39.51408 | -0.07822 | 30944 ft | 390 kts | 262° |
| 2026-05-07 17:21 | 39.50932 | -0.14832 | 30948 ft | 390 kts | 262° |
| 2026-05-07 17:21 | 39.50452 | -0.21833 | 30956 ft | 390 kts | 262° |
| 2026-05-07 17:22 | 39.49968 | -0.28830 | 30969 ft | 390 kts | 262° |
| 2026-05-07 17:22 | 39.49479 | -0.35854 | 30971 ft | 391 kts | 262° |
| 2026-05-07 17:23 | 39.48998 | -0.42863 | 30964 ft | 391 kts | 265° |
| 2026-05-07 17:23 | 39.49736 | -0.49849 | 30972 ft | 398 kts | 282° |
| 2026-05-07 17:24 | 39.52057 | -0.56440 | 30975 ft | 406 kts | 294° |
| 2026-05-07 17:24 | 39.54917 | -0.62761 | 30971 ft | 407 kts | 295° |
| 2026-05-07 17:25 | 39.57754 | -0.69068 | 30958 ft | 406 kts | 294° |
| 2026-05-07 17:25 | 39.60561 | -0.75419 | 30958 ft | 405 kts | 294° |
| 2026-05-07 17:26 | 39.63350 | -0.81777 | 30943 ft | 405 kts | 294° |
| 2026-05-07 17:26 | 39.66132 | -0.88135 | 30941 ft | 405 kts | 294° |
| 2026-05-07 17:27 | 39.68907 | -0.94487 | 30926 ft | 405 kts | 294° |
| 2026-05-07 17:27 | 39.71683 | -1.00850 | 30914 ft | 405 kts | 294° |
| 2026-05-07 17:28 | 39.74449 | -1.07206 | 30915 ft | 404 kts | 294° |
| 2026-05-07 17:28 | 39.77210 | -1.13576 | 30923 ft | 404 kts | 294° |
| 2026-05-07 17:29 | 39.79950 | -1.19919 | 30914 ft | 403 kts | 294° |
| 2026-05-07 17:29 | 39.82729 | -1.26311 | 30917 ft | 403 kts | 295° |
| 2026-05-07 17:30 | 39.85480 | -1.32594 | 30937 ft | 402 kts | 295° |
| 2026-05-07 17:30 | 39.88242 | -1.38924 | 30954 ft | 401 kts | 295° |
| 2026-05-07 17:31 | 39.90991 | -1.45252 | 30970 ft | 401 kts | 295° |
| 2026-05-07 17:31 | 39.93722 | -1.51591 | 30987 ft | 401 kts | 295° |
| 2026-05-07 17:32 | 39.96458 | -1.57964 | 30996 ft | 400 kts | 295° |
| 2026-05-07 17:32 | 39.98733 | -1.63271 | 30986 ft | 401 kts | 295° |
| 2026-05-07 17:33 | 40.01896 | -1.70661 | 30989 ft | 401 kts | 295° |
| 2026-05-07 17:33 | 40.04608 | -1.77012 | 30979 ft | 398 kts | 295° |
| 2026-05-07 17:34 | 40.07280 | -1.83278 | 30987 ft | 394 kts | 295° |
| 2026-05-07 17:34 | 40.09953 | -1.89568 | 30777 ft | 397 kts | 295° |
| 2026-05-07 17:35 | 40.11271 | -1.92671 | 30421 ft | 392 kts | 296° |
| 2026-05-07 17:35 | 40.12589 | -1.95775 | 29947 ft | 388 kts | 296° |
| 2026-05-07 17:35 | 40.13891 | -1.98844 | 29429 ft | 384 kts | 296° |
| 2026-05-07 17:35 | 40.15175 | -2.01876 | 28929 ft | 380 kts | 296° |
| 2026-05-07 17:36 | 40.16451 | -2.04897 | 28332 ft | 378 kts | 296° |
| 2026-05-07 17:36 | 40.17720 | -2.07905 | 27842 ft | 375 kts | 296° |
| 2026-05-07 17:36 | 40.18973 | -2.10878 | 27355 ft | 372 kts | 296° |
| 2026-05-07 17:36 | 40.20214 | -2.13825 | 26888 ft | 369 kts | 296° |
| 2026-05-07 17:37 | 40.21445 | -2.16752 | 26430 ft | 366 kts | 296° |
| 2026-05-07 17:37 | 40.22670 | -2.19668 | 25961 ft | 363 kts | 296° |
| 2026-05-07 17:37 | 40.23881 | -2.22551 | 25511 ft | 361 kts | 296° |
| 2026-05-07 17:37 | 40.25085 | -2.25423 | 25120 ft | 357 kts | 296° |
| 2026-05-07 17:38 | 40.26255 | -2.28210 | 25148 ft | 342 kts | 296° |
| 2026-05-07 17:38 | 40.27396 | -2.30927 | 25128 ft | 341 kts | 297° |
| 2026-05-07 17:38 | 40.28780 | -2.33567 | 24851 ft | 364 kts | 304° |
| 2026-05-07 17:38 | 40.30404 | -2.36253 | 24604 ft | 375 kts | 306° |
| 2026-05-07 17:39 | 40.32064 | -2.38923 | 24369 ft | 377 kts | 306° |
| 2026-05-07 17:39 | 40.33726 | -2.41587 | 24000 ft | 377 kts | 306° |
| 2026-05-07 17:39 | 40.35356 | -2.44216 | 23579 ft | 376 kts | 306° |
| 2026-05-07 17:39 | 40.36994 | -2.46876 | 23065 ft | 373 kts | 306° |
| 2026-05-07 17:40 | 40.38614 | -2.49524 | 22539 ft | 370 kts | 306° |
| 2026-05-07 17:40 | 40.40216 | -2.52154 | 22029 ft | 368 kts | 306° |
| 2026-05-07 17:40 | 40.41804 | -2.54772 | 21533 ft | 365 kts | 306° |
| 2026-05-07 17:40 | 40.43376 | -2.57367 | 21030 ft | 358 kts | 306° |
| 2026-05-07 17:41 | 40.44910 | -2.59904 | 20542 ft | 355 kts | 306° |
| 2026-05-07 17:41 | 40.46449 | -2.62451 | 20054 ft | 354 kts | 306° |
| 2026-05-07 17:41 | 40.47980 | -2.64990 | 19552 ft | 354 kts | 306° |
| 2026-05-07 17:41 | 40.49509 | -2.67527 | 19073 ft | 353 kts | 306° |
| 2026-05-07 17:42 | 40.51035 | -2.70061 | 18600 ft | 353 kts | 306° |
| 2026-05-07 17:42 | 40.52552 | -2.72583 | 18113 ft | 352 kts | 306° |
| 2026-05-07 17:42 | 40.54070 | -2.75107 | 17577 ft | 351 kts | 306° |
| 2026-05-07 17:42 | 40.55565 | -2.77595 | 17052 ft | 351 kts | 307° |
| 2026-05-07 17:43 | 40.57073 | -2.80106 | 16530 ft | 350 kts | 307° |
| 2026-05-07 17:43 | 40.58584 | -2.82624 | 16012 ft | 349 kts | 307° |
| 2026-05-07 17:43 | 40.60084 | -2.85126 | 15507 ft | 348 kts | 307° |
| 2026-05-07 17:43 | 40.61566 | -2.87599 | 15009 ft | 338 kts | 307° |
| 2026-05-07 17:44 | 40.62523 | -2.89197 | 14713 ft | 332 kts | 307° |
| 2026-05-07 17:44 | 40.63931 | -2.91548 | 14263 ft | 323 kts | 306° |
| 2026-05-07 17:44 | 40.65304 | -2.93843 | 13846 ft | 314 kts | 307° |
| 2026-05-07 17:44 | 40.66641 | -2.96082 | 13400 ft | 308 kts | 306° |
| 2026-05-07 17:45 | 40.67954 | -2.98282 | 12963 ft | 306 kts | 307° |
| 2026-05-07 17:45 | 40.69275 | -3.00498 | 12521 ft | 305 kts | 307° |
| 2026-05-07 17:45 | 40.70577 | -3.02684 | 12162 ft | 302 kts | 307° |
| 2026-05-07 17:45 | 40.71869 | -3.04854 | 11784 ft | 299 kts | 307° |
| 2026-05-07 17:46 | 40.73147 | -3.07002 | 11453 ft | 297 kts | 307° |
| 2026-05-07 17:46 | 40.74420 | -3.09143 | 11107 ft | 295 kts | 307° |
| 2026-05-07 17:46 | 40.75684 | -3.11268 | 10760 ft | 294 kts | 307° |
| 2026-05-07 17:46 | 40.76954 | -3.13407 | 10426 ft | 296 kts | 307° |
| 2026-05-07 17:47 | 40.78229 | -3.15556 | 10090 ft | 298 kts | 307° |
| 2026-05-07 17:47 | 40.79503 | -3.17705 | 9742 ft | 295 kts | 307° |
| 2026-05-07 17:47 | 40.80766 | -3.19835 | 9369 ft | 293 kts | 307° |
| 2026-05-07 17:47 | 40.82003 | -3.21924 | 9006 ft | 291 kts | 307° |
| 2026-05-07 17:48 | 40.83233 | -3.24001 | 8615 ft | 283 kts | 307° |
| 2026-05-07 17:48 | 40.84441 | -3.26043 | 8313 ft | 282 kts | 307° |
| 2026-05-07 17:48 | 40.85641 | -3.28072 | 8066 ft | 278 kts | 307° |
| 2026-05-07 17:48 | 40.86819 | -3.30066 | 8000 ft | 272 kts | 307° |
| 2026-05-07 17:49 | 40.87976 | -3.32026 | 7997 ft | 270 kts | 307° |
| 2026-05-07 17:49 | 40.89136 | -3.33992 | 7993 ft | 272 kts | 307° |
| 2026-05-07 17:49 | 40.90261 | -3.36003 | 7981 ft | 272 kts | 297° |
| 2026-05-07 17:49 | 40.90741 | -3.38370 | 7988 ft | 267 kts | 268° |
| 2026-05-07 17:50 | 40.90381 | -3.40773 | 7813 ft | 269 kts | 246° |
| 2026-05-07 17:50 | 40.89600 | -3.42990 | 7637 ft | 263 kts | 243° |
| 2026-05-07 17:50 | 40.88802 | -3.45137 | 7464 ft | 255 kts | 243° |
| 2026-05-07 17:50 | 40.88042 | -3.47187 | 7292 ft | 244 kts | 243° |
| 2026-05-07 17:51 | 40.87308 | -3.49191 | 7108 ft | 240 kts | 243° |
| 2026-05-07 17:51 | 40.86591 | -3.51160 | 7023 ft | 239 kts | 243° |
| 2026-05-07 17:51 | 40.85887 | -3.53100 | 6994 ft | 228 kts | 243° |
| 2026-05-07 17:51 | 40.85219 | -3.54943 | 6992 ft | 219 kts | 243° |
| 2026-05-07 17:52 | 40.84377 | -3.56567 | 6961 ft | 214 kts | 215° |
| 2026-05-07 17:52 | 40.82994 | -3.57176 | 7007 ft | 213 kts | 187° |
| 2026-05-07 17:52 | 40.81500 | -3.57425 | 6995 ft | 218 kts | 186° |
| 2026-05-07 17:52 | 40.79976 | -3.57572 | 6998 ft | 221 kts | 182° |
| 2026-05-07 17:53 | 40.78443 | -3.57617 | 6995 ft | 219 kts | 181° |
| 2026-05-07 17:53 | 40.76909 | -3.57622 | 6795 ft | 222 kts | 180° |
| 2026-05-07 17:53 | 40.75357 | -3.57615 | 6521 ft | 222 kts | 180° |
| 2026-05-07 17:53 | 40.73827 | -3.57605 | 6228 ft | 217 kts | 180° |
| 2026-05-07 17:54 | 40.72334 | -3.57596 | 5947 ft | 213 kts | 179° |
| 2026-05-07 17:54 | 40.70869 | -3.57587 | 5660 ft | 207 kts | 179° |
| 2026-05-07 17:54 | 40.69447 | -3.57579 | 5380 ft | 201 kts | 179° |
| 2026-05-07 17:54 | 40.68065 | -3.57571 | 5118 ft | 196 kts | 179° |
| 2026-05-07 17:55 | 40.66719 | -3.57563 | 4862 ft | 192 kts | 179° |
| 2026-05-07 17:55 | 40.65417 | -3.57556 | 4619 ft | 187 kts | 179° |
| 2026-05-07 17:55 | 40.64104 | -3.57548 | 4358 ft | 184 kts | 179° |
| 2026-05-07 17:55 | 40.62871 | -3.57541 | 4117 ft | 174 kts | 179° |
| 2026-05-07 17:56 | 40.61715 | -3.57535 | 3903 ft | 160 kts | 179° |
| 2026-05-07 17:56 | 40.60620 | -3.57528 | 3687 ft | 155 kts | 179° |
| 2026-05-07 17:56 | 40.59547 | -3.57522 | 3479 ft | 155 kts | 179° |
| 2026-05-07 17:56 | 40.58457 | -3.57516 | 3268 ft | 157 kts | 178° |
| 2026-05-07 17:57 | 40.57358 | -3.57509 | 3054 ft | 158 kts | 178° |
| 2026-05-07 17:57 | 40.56632 | -3.57505 | 2894 ft | 158 kts | 178° |
| 2026-05-07 17:57 | 40.55144 | -3.57491 | 2534 ft | 160 kts | 178° |
| 2026-05-07 17:57 | 40.54071 | -3.57476 | 2280 ft | 150 kts | 179° |
| 2026-05-07 17:58 | 40.53060 | -3.57468 | 2073 ft | 144 kts | 181° |
| 2026-05-07 17:58 | 40.52086 | -3.57474 | 2000 ft | 134 kts | 181° |
| 2026-05-07 17:58 | 40.51277 | -3.57473 | 1996 ft | 96 kts | 180° |
| 2026-05-07 17:58 | 40.50761 | -3.57470 | 1997 ft | 53 kts | 180° |
| 2026-05-07 17:59 | 40.50447 | -3.57490 | 1995 ft | 34 kts | 193° |
| 2026-05-07 17:59 | 40.50291 | -3.57573 | 1995 ft | 16 kts | 208° |
| 2026-05-07 17:59 | 40.50193 | -3.57641 | 1994 ft | 16 kts | 207° |
| 2026-05-07 17:59 | 40.50173 | -3.57655 | 1994 ft | 0 kts | 207° |
| 2026-05-07 18:00 | 40.50165 | -3.57660 | 1994 ft | 3 kts | 207° |
| 2026-05-07 18:00 | 40.50126 | -3.57682 | 1994 ft | 9 kts | 197° |
| 2026-05-07 18:01 | 40.50050 | -3.57692 | 1994 ft | 13 kts | 180° |
| 2026-05-07 18:01 | 40.50025 | -3.57692 | 1994 ft | 0 kts | 180° |
| 2026-05-07 18:02 | 40.49977 | -3.57692 | 1994 ft | 9 kts | 180° |
| 2026-05-07 18:02 | 40.49901 | -3.57692 | 1994 ft | 13 kts | 180° |
| 2026-05-07 18:02 | 40.49793 | -3.57692 | 1994 ft | 16 kts | 180° |
| 2026-05-07 18:03 | 40.49743 | -3.57786 | 1993 ft | 16 kts | 270° |
| 2026-05-07 18:03 | 40.49720 | -3.57928 | 1992 ft | 17 kts | 219° |
| 2026-05-07 18:03 | 40.49599 | -3.57936 | 1992 ft | 18 kts | 180° |
| 2026-05-07 18:03 | 40.49471 | -3.57937 | 1992 ft | 19 kts | 180° |
| 2026-05-07 18:04 | 40.49333 | -3.57937 | 1991 ft | 20 kts | 179° |
| 2026-05-07 18:04 | 40.49188 | -3.57935 | 1992 ft | 21 kts | 179° |
| 2026-05-07 18:04 | 40.49036 | -3.57934 | 1993 ft | 22 kts | 180° |
| 2026-05-07 18:04 | 40.48882 | -3.57934 | 1995 ft | 22 kts | 180° |
| 2026-05-07 18:05 | 40.48732 | -3.57934 | 1997 ft | 21 kts | 180° |
| 2026-05-07 18:05 | 40.48589 | -3.57921 | 2000 ft | 20 kts | 161° |
| 2026-05-07 18:05 | 40.48465 | -3.57835 | 2002 ft | 20 kts | 150° |
| 2026-05-07 18:05 | 40.48349 | -3.57731 | 2002 ft | 21 kts | 143° |
| 2026-05-07 18:06 | 40.48227 | -3.57611 | 1999 ft | 23 kts | 143° |
| 2026-05-07 18:06 | 40.48096 | -3.57475 | 1995 ft | 25 kts | 141° |
| 2026-05-07 18:06 | 40.47951 | -3.57325 | 1992 ft | 27 kts | 142° |
| 2026-05-07 18:06 | 40.47799 | -3.57170 | 1988 ft | 20 kts | 142° |
| 2026-05-07 18:07 | 40.47730 | -3.57100 | 1986 ft | 11 kts | 142° |
| 2026-05-07 18:07 | 40.47660 | -3.57061 | 1986 ft | 9 kts | 195° |
| 2026-05-07 18:07 | 40.47653 | -3.57065 | 1984 ft | 1 kts | 202° |
| 2026-05-07 18:07 | 40.47640 | -3.57076 | 1985 ft | 4 kts | 221° |
| 2026-05-07 18:08 | 40.47615 | -3.57118 | 1985 ft | 8 kts | 233° |
| 2026-05-07 18:08 | 40.47573 | -3.57190 | 1984 ft | 12 kts | 229° |
| 2026-05-07 18:08 | 40.47490 | -3.57174 | 1982 ft | 15 kts | 160° |
| 2026-05-07 18:08 | 40.47384 | -3.57182 | 2000 ft | 13 kts | 189° |
| 2026-05-07 18:09 | 40.47282 | -3.57201 | 1978 ft | 16 kts | 187° |
| 2026-05-07 18:09 | 40.47268 | -3.57203 | 1979 ft | 2 kts | 180° |
| 2026-05-07 18:09 | 40.47259 | -3.57184 | 1978 ft | 4 kts | 108° |
| 2026-05-07 18:09 | 40.47233 | -3.57149 | 1978 ft | 6 kts | 139° |
| 2026-05-07 18:10 | 40.47228 | -3.57144 | 1977 ft | 0 kts | 139° |